sensor_id;sensor_type;location;lat;lon;timestamp;P1;durP1;ratioP1;P2;durP2;ratioP2
29240;SDS011;16268;49.880;8.648;2022-11-21T00:00:42;10.45;;;2.83;;
29240;SDS011;16268;49.880;8.648;2022-11-21T00:03:10;8.57;;;3.08;;
29240;SDS011;16268;49.880;8.648;2022-11-21T00:05:40;7.45;;;2.75;;
29240;SDS011;16268;49.880;8.648;2022-11-21T00:08:07;7.10;;;3.15;;
29240;SDS011;16268;49.880;8.648;2022-11-21T00:10:34;9.23;;;3.30;;
29240;SDS011;16268;49.880;8.648;2022-11-21T00:13:01;9.73;;;2.75;;
29240;SDS011;16268;49.880;8.648;2022-11-21T00:15:27;8.35;;;3.00;;
29240;SDS011;16268;49.880;8.648;2022-11-21T00:17:53;12.30;;;3.20;;
29240;SDS011;16268;49.880;8.648;2022-11-21T00:20:19;8.23;;;2.92;;
29240;SDS011;16268;49.880;8.648;2022-11-21T00:22:46;10.75;;;2.95;;
29240;SDS011;16268;49.880;8.648;2022-11-21T00:25:12;10.95;;;3.00;;
29240;SDS011;16268;49.880;8.648;2022-11-21T00:27:38;10.77;;;2.85;;
29240;SDS011;16268;49.880;8.648;2022-11-21T00:30:05;7.82;;;2.20;;
29240;SDS011;16268;49.880;8.648;2022-11-21T00:32:32;7.22;;;2.20;;
29240;SDS011;16268;49.880;8.648;2022-11-21T00:34:57;10.18;;;2.55;;
29240;SDS011;16268;49.880;8.648;2022-11-21T00:37:26;10.10;;;2.45;;
29240;SDS011;16268;49.880;8.648;2022-11-21T00:39:51;12.48;;;2.25;;
29240;SDS011;16268;49.880;8.648;2022-11-21T00:42:17;11.25;;;2.40;;
29240;SDS011;16268;49.880;8.648;2022-11-21T00:44:42;12.45;;;2.25;;
29240;SDS011;16268;49.880;8.648;2022-11-21T00:47:08;11.80;;;2.70;;
29240;SDS011;16268;49.880;8.648;2022-11-21T00:49:33;12.05;;;2.50;;
29240;SDS011;16268;49.880;8.648;2022-11-21T00:51:59;10.75;;;2.95;;
29240;SDS011;16268;49.880;8.648;2022-11-21T00:54:28;11.48;;;3.33;;
29240;SDS011;16268;49.880;8.648;2022-11-21T00:56:56;12.35;;;3.13;;
29240;SDS011;16268;49.880;8.648;2022-11-21T00:59:22;13.73;;;2.90;;
29240;SDS011;16268;49.880;8.648;2022-11-21T01:01:48;11.55;;;3.03;;
29240;SDS011;16268;49.880;8.648;2022-11-21T01:04:13;12.48;;;3.45;;
29240;SDS011;16268;49.880;8.648;2022-11-21T01:06:39;15.13;;;3.20;;
29240;SDS011;16268;49.880;8.648;2022-11-21T01:09:05;8.55;;;2.90;;
29240;SDS011;16268;49.880;8.648;2022-11-21T01:11:30;11.30;;;3.13;;
29240;SDS011;16268;49.880;8.648;2022-11-21T01:13:59;13.32;;;3.22;;
29240;SDS011;16268;49.880;8.648;2022-11-21T01:16:25;12.23;;;3.10;;
29240;SDS011;16268;49.880;8.648;2022-11-21T01:18:52;10.80;;;3.20;;
29240;SDS011;16268;49.880;8.648;2022-11-21T01:21:19;16.35;;;2.95;;
29240;SDS011;16268;49.880;8.648;2022-11-21T01:23:52;9.45;;;2.63;;
29240;SDS011;16268;49.880;8.648;2022-11-21T01:26:24;13.98;;;3.63;;
29240;SDS011;16268;49.880;8.648;2022-11-21T01:28:51;10.13;;;2.95;;
29240;SDS011;16268;49.880;8.648;2022-11-21T01:31:21;13.27;;;3.53;;
29240;SDS011;16268;49.880;8.648;2022-11-21T01:33:48;15.73;;;3.20;;
29240;SDS011;16268;49.880;8.648;2022-11-21T01:36:21;12.77;;;2.47;;
29240;SDS011;16268;49.880;8.648;2022-11-21T01:38:48;11.00;;;2.92;;
29240;SDS011;16268;49.880;8.648;2022-11-21T01:41:17;12.18;;;2.67;;
29240;SDS011;16268;49.880;8.648;2022-11-21T01:43:44;18.92;;;2.80;;
29240;SDS011;16268;49.880;8.648;2022-11-21T01:46:12;12.75;;;2.90;;
29240;SDS011;16268;49.880;8.648;2022-11-21T01:56:27;9.25;;;2.80;;
29240;SDS011;16268;49.880;8.648;2022-11-21T01:58:57;13.25;;;3.20;;
29240;SDS011;16268;49.880;8.648;2022-11-21T02:01:26;15.30;;;3.25;;
29240;SDS011;16268;49.880;8.648;2022-11-21T02:03:53;10.38;;;2.70;;
29240;SDS011;16268;49.880;8.648;2022-11-21T02:06:20;13.43;;;3.17;;
29240;SDS011;16268;49.880;8.648;2022-11-21T02:08:48;18.80;;;3.40;;
29240;SDS011;16268;49.880;8.648;2022-11-21T02:11:24;11.65;;;2.65;;
29240;SDS011;16268;49.880;8.648;2022-11-21T02:13:56;11.85;;;2.75;;
29240;SDS011;16268;49.880;8.648;2022-11-21T02:16:22;11.85;;;3.00;;
29240;SDS011;16268;49.880;8.648;2022-11-21T02:18:49;11.52;;;2.67;;
29240;SDS011;16268;49.880;8.648;2022-11-21T02:21:18;15.30;;;3.10;;
29240;SDS011;16268;49.880;8.648;2022-11-21T02:23:55;15.05;;;2.80;;
29240;SDS011;16268;49.880;8.648;2022-11-21T02:26:27;10.57;;;3.28;;
29240;SDS011;16268;49.880;8.648;2022-11-21T02:28:54;12.70;;;2.78;;
29240;SDS011;16268;49.880;8.648;2022-11-21T02:31:20;14.15;;;3.25;;
29240;SDS011;16268;49.880;8.648;2022-11-21T02:33:46;14.50;;;2.72;;
29240;SDS011;16268;49.880;8.648;2022-11-21T02:39:07;12.05;;;3.30;;
29240;SDS011;16268;49.880;8.648;2022-11-21T02:41:39;8.70;;;2.72;;
29240;SDS011;16268;49.880;8.648;2022-11-21T02:44:16;14.98;;;2.83;;
29240;SDS011;16268;49.880;8.648;2022-11-21T02:46:46;14.55;;;3.20;;
29240;SDS011;16268;49.880;8.648;2022-11-21T02:49:18;16.60;;;3.22;;
29240;SDS011;16268;49.880;8.648;2022-11-21T02:51:49;19.05;;;3.05;;
29240;SDS011;16268;49.880;8.648;2022-11-21T02:54:15;16.10;;;2.90;;
29240;SDS011;16268;49.880;8.648;2022-11-21T02:56:40;13.38;;;2.90;;
29240;SDS011;16268;49.880;8.648;2022-11-21T02:59:06;20.02;;;3.38;;
29240;SDS011;16268;49.880;8.648;2022-11-21T03:01:31;13.43;;;3.15;;
29240;SDS011;16268;49.880;8.648;2022-11-21T03:03:57;13.93;;;2.95;;
29240;SDS011;16268;49.880;8.648;2022-11-21T03:06:22;11.68;;;2.88;;
29240;SDS011;16268;49.880;8.648;2022-11-21T03:08:48;13.25;;;2.67;;
29240;SDS011;16268;49.880;8.648;2022-11-21T03:11:13;14.23;;;2.80;;
29240;SDS011;16268;49.880;8.648;2022-11-21T03:13:39;9.88;;;2.60;;
29240;SDS011;16268;49.880;8.648;2022-11-21T03:16:04;13.43;;;2.90;;
29240;SDS011;16268;49.880;8.648;2022-11-21T03:18:30;9.98;;;2.50;;
29240;SDS011;16268;49.880;8.648;2022-11-21T03:20:56;13.00;;;3.10;;
29240;SDS011;16268;49.880;8.648;2022-11-21T03:23:22;11.93;;;2.90;;
29240;SDS011;16268;49.880;8.648;2022-11-21T03:25:47;14.50;;;2.80;;
29240;SDS011;16268;49.880;8.648;2022-11-21T03:28:13;11.95;;;2.72;;
29240;SDS011;16268;49.880;8.648;2022-11-21T03:30:38;15.23;;;3.30;;
29240;SDS011;16268;49.880;8.648;2022-11-21T03:33:04;14.68;;;2.95;;
29240;SDS011;16268;49.880;8.648;2022-11-21T03:35:29;15.43;;;3.17;;
29240;SDS011;16268;49.880;8.648;2022-11-21T03:37:55;10.30;;;3.33;;
29240;SDS011;16268;49.880;8.648;2022-11-21T03:40:20;12.32;;;2.90;;
29240;SDS011;16268;49.880;8.648;2022-11-21T03:42:46;12.90;;;2.90;;
29240;SDS011;16268;49.880;8.648;2022-11-21T03:45:12;7.53;;;2.63;;
29240;SDS011;16268;49.880;8.648;2022-11-21T03:47:37;13.23;;;2.97;;
29240;SDS011;16268;49.880;8.648;2022-11-21T03:50:03;13.48;;;2.85;;
29240;SDS011;16268;49.880;8.648;2022-11-21T03:52:28;10.73;;;3.13;;
29240;SDS011;16268;49.880;8.648;2022-11-21T03:54:54;14.88;;;2.67;;
29240;SDS011;16268;49.880;8.648;2022-11-21T03:57:19;12.00;;;2.83;;
29240;SDS011;16268;49.880;8.648;2022-11-21T03:59:45;13.90;;;3.63;;
29240;SDS011;16268;49.880;8.648;2022-11-21T04:02:11;15.10;;;3.08;;
29240;SDS011;16268;49.880;8.648;2022-11-21T04:04:36;12.07;;;3.20;;
29240;SDS011;16268;49.880;8.648;2022-11-21T04:07:02;11.00;;;2.70;;
29240;SDS011;16268;49.880;8.648;2022-11-21T04:09:27;13.68;;;3.03;;
29240;SDS011;16268;49.880;8.648;2022-11-21T04:11:53;9.63;;;2.58;;
29240;SDS011;16268;49.880;8.648;2022-11-21T04:14:18;12.57;;;2.83;;
29240;SDS011;16268;49.880;8.648;2022-11-21T04:16:44;9.68;;;2.88;;
29240;SDS011;16268;49.880;8.648;2022-11-21T04:19:09;10.18;;;2.53;;
29240;SDS011;16268;49.880;8.648;2022-11-21T04:21:35;10.40;;;2.92;;
29240;SDS011;16268;49.880;8.648;2022-11-21T04:24:00;10.80;;;2.72;;
29240;SDS011;16268;49.880;8.648;2022-11-21T04:26:26;12.07;;;3.10;;
29240;SDS011;16268;49.880;8.648;2022-11-21T04:28:52;11.35;;;2.67;;
29240;SDS011;16268;49.880;8.648;2022-11-21T04:31:17;11.82;;;2.65;;
29240;SDS011;16268;49.880;8.648;2022-11-21T04:33:43;12.30;;;2.75;;
29240;SDS011;16268;49.880;8.648;2022-11-21T04:36:08;9.27;;;2.80;;
29240;SDS011;16268;49.880;8.648;2022-11-21T04:38:34;9.55;;;2.67;;
29240;SDS011;16268;49.880;8.648;2022-11-21T04:41:00;14.02;;;2.97;;
29240;SDS011;16268;49.880;8.648;2022-11-21T04:43:25;14.35;;;3.22;;
29240;SDS011;16268;49.880;8.648;2022-11-21T04:45:51;9.32;;;2.90;;
29240;SDS011;16268;49.880;8.648;2022-11-21T04:48:16;13.30;;;3.30;;
29240;SDS011;16268;49.880;8.648;2022-11-21T04:50:42;14.05;;;3.28;;
29240;SDS011;16268;49.880;8.648;2022-11-21T04:53:09;10.25;;;3.30;;
29240;SDS011;16268;49.880;8.648;2022-11-21T04:55:35;11.05;;;2.70;;
29240;SDS011;16268;49.880;8.648;2022-11-21T04:58:00;10.32;;;2.95;;
29240;SDS011;16268;49.880;8.648;2022-11-21T05:00:26;10.95;;;3.05;;
29240;SDS011;16268;49.880;8.648;2022-11-21T05:02:51;9.00;;;2.40;;
29240;SDS011;16268;49.880;8.648;2022-11-21T05:05:17;12.50;;;3.30;;
29240;SDS011;16268;49.880;8.648;2022-11-21T05:07:43;9.48;;;2.78;;
29240;SDS011;16268;49.880;8.648;2022-11-21T05:10:08;7.22;;;2.67;;
29240;SDS011;16268;49.880;8.648;2022-11-21T05:12:34;8.38;;;2.70;;
29240;SDS011;16268;49.880;8.648;2022-11-21T05:15:18;8.90;;;3.00;;
29240;SDS011;16268;49.880;8.648;2022-11-21T05:17:44;12.27;;;2.97;;
29240;SDS011;16268;49.880;8.648;2022-11-21T05:20:10;8.48;;;2.70;;
29240;SDS011;16268;49.880;8.648;2022-11-21T05:22:37;9.98;;;2.90;;
29240;SDS011;16268;49.880;8.648;2022-11-21T05:25:02;11.73;;;3.25;;
29240;SDS011;16268;49.880;8.648;2022-11-21T05:27:28;12.75;;;2.88;;
29240;SDS011;16268;49.880;8.648;2022-11-21T05:29:54;7.88;;;2.60;;
29240;SDS011;16268;49.880;8.648;2022-11-21T05:32:20;9.63;;;3.25;;
29240;SDS011;16268;49.880;8.648;2022-11-21T05:34:45;8.60;;;2.78;;
29240;SDS011;16268;49.880;8.648;2022-11-21T05:37:11;8.02;;;2.83;;
29240;SDS011;16268;49.880;8.648;2022-11-21T05:39:36;7.43;;;3.08;;
29240;SDS011;16268;49.880;8.648;2022-11-21T05:42:02;10.35;;;2.65;;
29240;SDS011;16268;49.880;8.648;2022-11-21T05:44:30;10.55;;;2.63;;
29240;SDS011;16268;49.880;8.648;2022-11-21T05:46:56;8.05;;;2.60;;
29240;SDS011;16268;49.880;8.648;2022-11-21T05:49:21;7.65;;;2.40;;
29240;SDS011;16268;49.880;8.648;2022-11-21T05:51:47;8.27;;;2.50;;
29240;SDS011;16268;49.880;8.648;2022-11-21T05:54:13;7.88;;;2.40;;
29240;SDS011;16268;49.880;8.648;2022-11-21T05:56:38;4.97;;;2.25;;
29240;SDS011;16268;49.880;8.648;2022-11-21T05:59:04;8.88;;;2.20;;
29240;SDS011;16268;49.880;8.648;2022-11-21T06:01:30;7.68;;;2.00;;
29240;SDS011;16268;49.880;8.648;2022-11-21T06:04:14;7.53;;;2.20;;
29240;SDS011;16268;49.880;8.648;2022-11-21T06:06:39;7.40;;;2.15;;
29240;SDS011;16268;49.880;8.648;2022-11-21T06:09:05;6.60;;;1.83;;
29240;SDS011;16268;49.880;8.648;2022-11-21T06:11:31;8.18;;;2.50;;
29240;SDS011;16268;49.880;8.648;2022-11-21T06:13:57;6.85;;;2.03;;
29240;SDS011;16268;49.880;8.648;2022-11-21T06:16:22;7.38;;;2.38;;
29240;SDS011;16268;49.880;8.648;2022-11-21T06:18:49;9.15;;;2.08;;
29240;SDS011;16268;49.880;8.648;2022-11-21T06:21:19;8.52;;;2.50;;
29240;SDS011;16268;49.880;8.648;2022-11-21T06:23:48;7.65;;;2.10;;
29240;SDS011;16268;49.880;8.648;2022-11-21T06:26:16;7.95;;;2.00;;
29240;SDS011;16268;49.880;8.648;2022-11-21T06:28:43;6.45;;;2.17;;
29240;SDS011;16268;49.880;8.648;2022-11-21T06:31:10;8.30;;;1.60;;
29240;SDS011;16268;49.880;8.648;2022-11-21T06:33:40;6.35;;;1.60;;
29240;SDS011;16268;49.880;8.648;2022-11-21T06:36:08;6.95;;;1.88;;
29240;SDS011;16268;49.880;8.648;2022-11-21T06:38:35;7.50;;;1.70;;
29240;SDS011;16268;49.880;8.648;2022-11-21T06:41:04;6.38;;;1.70;;
29240;SDS011;16268;49.880;8.648;2022-11-21T06:43:31;9.05;;;1.88;;
29240;SDS011;16268;49.880;8.648;2022-11-21T06:45:56;5.75;;;1.90;;
29240;SDS011;16268;49.880;8.648;2022-11-21T06:48:22;7.65;;;1.77;;
29240;SDS011;16268;49.880;8.648;2022-11-21T06:50:48;6.65;;;1.83;;
29240;SDS011;16268;49.880;8.648;2022-11-21T06:53:14;7.22;;;1.95;;
29240;SDS011;16268;49.880;8.648;2022-11-21T06:55:40;5.85;;;1.92;;
29240;SDS011;16268;49.880;8.648;2022-11-21T06:58:05;6.88;;;1.73;;
29240;SDS011;16268;49.880;8.648;2022-11-21T07:00:31;6.00;;;1.65;;
29240;SDS011;16268;49.880;8.648;2022-11-21T07:03:00;5.78;;;1.40;;
29240;SDS011;16268;49.880;8.648;2022-11-21T07:05:26;4.38;;;1.35;;
29240;SDS011;16268;49.880;8.648;2022-11-21T07:07:59;5.78;;;1.73;;
29240;SDS011;16268;49.880;8.648;2022-11-21T07:10:25;4.30;;;1.23;;
29240;SDS011;16268;49.880;8.648;2022-11-21T07:12:55;3.90;;;1.48;;
29240;SDS011;16268;49.880;8.648;2022-11-21T07:15:41;6.13;;;1.40;;
29240;SDS011;16268;49.880;8.648;2022-11-21T07:18:07;4.70;;;1.60;;
29240;SDS011;16268;49.880;8.648;2022-11-21T07:20:32;4.63;;;1.30;;
29240;SDS011;16268;49.880;8.648;2022-11-21T07:22:58;5.20;;;1.55;;
29240;SDS011;16268;49.880;8.648;2022-11-21T07:25:25;5.20;;;1.48;;
29240;SDS011;16268;49.880;8.648;2022-11-21T07:27:50;4.75;;;1.33;;
29240;SDS011;16268;49.880;8.648;2022-11-21T07:30:16;6.53;;;1.33;;
29240;SDS011;16268;49.880;8.648;2022-11-21T07:32:42;6.35;;;1.95;;
29240;SDS011;16268;49.880;8.648;2022-11-21T07:35:08;3.75;;;1.48;;
29240;SDS011;16268;49.880;8.648;2022-11-21T07:37:37;4.20;;;1.33;;
29240;SDS011;16268;49.880;8.648;2022-11-21T07:40:03;4.57;;;1.45;;
29240;SDS011;16268;49.880;8.648;2022-11-21T07:42:31;6.80;;;1.77;;
29240;SDS011;16268;49.880;8.648;2022-11-21T07:44:57;8.82;;;1.77;;
29240;SDS011;16268;49.880;8.648;2022-11-21T07:47:23;7.20;;;2.08;;
29240;SDS011;16268;49.880;8.648;2022-11-21T07:49:48;9.05;;;1.85;;
29240;SDS011;16268;49.880;8.648;2022-11-21T07:52:14;4.75;;;1.67;;
29240;SDS011;16268;49.880;8.648;2022-11-21T07:54:39;5.93;;;1.92;;
29240;SDS011;16268;49.880;8.648;2022-11-21T07:57:05;6.78;;;1.70;;
29240;SDS011;16268;49.880;8.648;2022-11-21T07:59:30;8.23;;;1.70;;
29240;SDS011;16268;49.880;8.648;2022-11-21T08:01:56;6.68;;;1.90;;
29240;SDS011;16268;49.880;8.648;2022-11-21T08:04:22;7.50;;;1.90;;
29240;SDS011;16268;49.880;8.648;2022-11-21T08:06:47;6.80;;;1.85;;
29240;SDS011;16268;49.880;8.648;2022-11-21T08:09:13;5.55;;;1.70;;
29240;SDS011;16268;49.880;8.648;2022-11-21T08:11:38;6.22;;;1.60;;
29240;SDS011;16268;49.880;8.648;2022-11-21T08:14:04;7.88;;;1.98;;
29240;SDS011;16268;49.880;8.648;2022-11-21T08:16:30;8.18;;;1.88;;
29240;SDS011;16268;49.880;8.648;2022-11-21T08:18:57;5.63;;;1.80;;
29240;SDS011;16268;49.880;8.648;2022-11-21T08:21:23;8.57;;;1.80;;
29240;SDS011;16268;49.880;8.648;2022-11-21T08:23:49;6.40;;;2.05;;
29240;SDS011;16268;49.880;8.648;2022-11-21T08:26:15;8.70;;;2.75;;
29240;SDS011;16268;49.880;8.648;2022-11-21T08:28:40;8.80;;;5.07;;
29240;SDS011;16268;49.880;8.648;2022-11-21T08:31:06;9.93;;;5.05;;
29240;SDS011;16268;49.880;8.648;2022-11-21T08:33:33;9.48;;;3.30;;
29240;SDS011;16268;49.880;8.648;2022-11-21T08:36:02;8.55;;;4.00;;
29240;SDS011;16268;49.880;8.648;2022-11-21T08:38:29;7.50;;;2.20;;
29240;SDS011;16268;49.880;8.648;2022-11-21T08:40:54;8.25;;;2.55;;
29240;SDS011;16268;49.880;8.648;2022-11-21T08:43:39;10.35;;;2.63;;
29240;SDS011;16268;49.880;8.648;2022-11-21T08:46:04;8.00;;;2.22;;
29240;SDS011;16268;49.880;8.648;2022-11-21T08:48:30;6.90;;;3.00;;
29240;SDS011;16268;49.880;8.648;2022-11-21T08:50:55;6.53;;;2.47;;
29240;SDS011;16268;49.880;8.648;2022-11-21T08:53:21;9.13;;;2.28;;
29240;SDS011;16268;49.880;8.648;2022-11-21T08:55:47;8.90;;;2.20;;
29240;SDS011;16268;49.880;8.648;2022-11-21T08:58:12;5.88;;;2.30;;
29240;SDS011;16268;49.880;8.648;2022-11-21T09:00:38;8.15;;;2.60;;
29240;SDS011;16268;49.880;8.648;2022-11-21T09:03:04;6.80;;;2.10;;
29240;SDS011;16268;49.880;8.648;2022-11-21T09:05:30;8.98;;;3.50;;
29240;SDS011;16268;49.880;8.648;2022-11-21T09:07:56;7.20;;;3.63;;
29240;SDS011;16268;49.880;8.648;2022-11-21T09:10:22;8.65;;;2.47;;
29240;SDS011;16268;49.880;8.648;2022-11-21T09:12:49;8.40;;;2.30;;
29240;SDS011;16268;49.880;8.648;2022-11-21T09:15:15;9.23;;;2.72;;
29240;SDS011;16268;49.880;8.648;2022-11-21T09:18:02;8.77;;;3.33;;
29240;SDS011;16268;49.880;8.648;2022-11-21T09:20:29;7.88;;;2.50;;
29240;SDS011;16268;49.880;8.648;2022-11-21T09:22:56;7.13;;;1.92;;
29240;SDS011;16268;49.880;8.648;2022-11-21T09:25:42;9.45;;;3.25;;
29240;SDS011;16268;49.880;8.648;2022-11-21T09:28:09;9.05;;;3.53;;
29240;SDS011;16268;49.880;8.648;2022-11-21T09:30:35;8.43;;;2.53;;
29240;SDS011;16268;49.880;8.648;2022-11-21T09:33:06;9.18;;;2.17;;
29240;SDS011;16268;49.880;8.648;2022-11-21T09:35:33;9.05;;;2.90;;
29240;SDS011;16268;49.880;8.648;2022-11-21T09:37:59;17.58;;;8.50;;
29240;SDS011;16268;49.880;8.648;2022-11-21T09:40:25;7.80;;;2.70;;
29240;SDS011;16268;49.880;8.648;2022-11-21T09:45:40;7.03;;;3.67;;
29240;SDS011;16268;49.880;8.648;2022-11-21T09:48:15;9.98;;;2.47;;
29240;SDS011;16268;49.880;8.648;2022-11-21T09:50:48;12.23;;;3.40;;
29240;SDS011;16268;49.880;8.648;2022-11-21T09:53:20;7.45;;;3.10;;
29240;SDS011;16268;49.880;8.648;2022-11-21T09:55:52;8.55;;;2.38;;
29240;SDS011;16268;49.880;8.648;2022-11-21T09:58:36;7.05;;;2.58;;
29240;SDS011;16268;49.880;8.648;2022-11-21T10:01:21;10.07;;;3.05;;
29240;SDS011;16268;49.880;8.648;2022-11-21T10:03:48;6.15;;;2.13;;
29240;SDS011;16268;49.880;8.648;2022-11-21T10:06:17;6.43;;;2.17;;
29240;SDS011;16268;49.880;8.648;2022-11-21T10:11:14;7.65;;;1.83;;
29240;SDS011;16268;49.880;8.648;2022-11-21T10:26:57;15.18;;;5.97;;
29240;SDS011;16268;49.880;8.648;2022-11-21T10:29:50;15.38;;;5.45;;
29240;SDS011;16268;49.880;8.648;2022-11-21T10:34:57;16.00;;;5.80;;
29240;SDS011;16268;49.880;8.648;2022-11-21T10:37:34;12.25;;;4.28;;
29240;SDS011;16268;49.880;8.648;2022-11-21T10:42:57;10.98;;;3.75;;
29240;SDS011;16268;49.880;8.648;2022-11-21T10:45:47;17.90;;;5.93;;
29240;SDS011;16268;49.880;8.648;2022-11-21T10:48:13;20.02;;;7.60;;
29240;SDS011;16268;49.880;8.648;2022-11-21T10:53:35;12.35;;;5.25;;
29240;SDS011;16268;49.880;8.648;2022-11-21T10:56:36;9.48;;;3.08;;
29240;SDS011;16268;49.880;8.648;2022-11-21T10:59:10;6.35;;;2.90;;
29240;SDS011;16268;49.880;8.648;2022-11-21T11:01:43;12.07;;;5.72;;
29240;SDS011;16268;49.880;8.648;2022-11-21T11:04:22;10.35;;;5.57;;
29240;SDS011;16268;49.880;8.648;2022-11-21T11:06:49;5.80;;;1.95;;
29240;SDS011;16268;49.880;8.648;2022-11-21T11:09:25;24.98;;;13.38;;
29240;SDS011;16268;49.880;8.648;2022-11-21T11:14:42;52.80;;;28.80;;
29240;SDS011;16268;49.880;8.648;2022-11-21T11:17:15;58.60;;;34.95;;
29240;SDS011;16268;49.880;8.648;2022-11-21T11:19:43;83.75;;;49.58;;
29240;SDS011;16268;49.880;8.648;2022-11-21T11:22:30;14.35;;;7.32;;
29240;SDS011;16268;49.880;8.648;2022-11-21T11:24:56;8.18;;;5.00;;
29240;SDS011;16268;49.880;8.648;2022-11-21T11:27:25;6.47;;;2.10;;
29240;SDS011;16268;49.880;8.648;2022-11-21T11:29:53;5.43;;;2.33;;
29240;SDS011;16268;49.880;8.648;2022-11-21T11:32:19;7.85;;;3.05;;
29240;SDS011;16268;49.880;8.648;2022-11-21T11:37:19;8.88;;;2.88;;
29240;SDS011;16268;49.880;8.648;2022-11-21T11:40:28;7.93;;;1.85;;
29240;SDS011;16268;49.880;8.648;2022-11-21T11:42:52;6.55;;;1.77;;
29240;SDS011;16268;49.880;8.648;2022-11-21T11:49:02;6.45;;;2.08;;
29240;SDS011;16268;49.880;8.648;2022-11-21T11:51:37;8.15;;;2.50;;
29240;SDS011;16268;49.880;8.648;2022-11-21T11:54:14;8.35;;;2.25;;
29240;SDS011;16268;49.880;8.648;2022-11-21T11:56:43;7.13;;;1.80;;
29240;SDS011;16268;49.880;8.648;2022-11-21T12:01:48;7.63;;;1.65;;
29240;SDS011;16268;49.880;8.648;2022-11-21T12:04:17;7.47;;;1.95;;
29240;SDS011;16268;49.880;8.648;2022-11-21T12:12:15;8.20;;;1.92;;
29240;SDS011;16268;49.880;8.648;2022-11-21T12:15:11;8.60;;;1.75;;
29240;SDS011;16268;49.880;8.648;2022-11-21T12:20:53;5.00;;;1.40;;
29240;SDS011;16268;49.880;8.648;2022-11-21T12:23:24;7.20;;;1.80;;
29240;SDS011;16268;49.880;8.648;2022-11-21T12:26:08;6.28;;;1.83;;
29240;SDS011;16268;49.880;8.648;2022-11-21T12:37:43;8.10;;;2.53;;
29240;SDS011;16268;49.880;8.648;2022-11-21T12:40:19;9.63;;;2.60;;
29240;SDS011;16268;49.880;8.648;2022-11-21T12:46:01;8.32;;;2.50;;
29240;SDS011;16268;49.880;8.648;2022-11-21T12:48:43;9.45;;;2.70;;
29240;SDS011;16268;49.880;8.648;2022-11-21T12:51:46;9.40;;;3.42;;
29240;SDS011;16268;49.880;8.648;2022-11-21T13:00:13;5.47;;;1.90;;
29240;SDS011;16268;49.880;8.648;2022-11-21T13:05:41;7.25;;;2.10;;
29240;SDS011;16268;49.880;8.648;2022-11-21T13:08:12;7.03;;;1.80;;
29240;SDS011;16268;49.880;8.648;2022-11-21T13:10:44;11.48;;;2.45;;
29240;SDS011;16268;49.880;8.648;2022-11-21T13:13:51;8.82;;;2.42;;
29240;SDS011;16268;49.880;8.648;2022-11-21T13:16:25;9.60;;;2.10;;
29240;SDS011;16268;49.880;8.648;2022-11-21T13:21:46;7.18;;;2.15;;
29240;SDS011;16268;49.880;8.648;2022-11-21T13:27:27;13.68;;;3.10;;
29240;SDS011;16268;49.880;8.648;2022-11-21T13:30:28;10.52;;;2.20;;
29240;SDS011;16268;49.880;8.648;2022-11-21T13:32:52;7.00;;;1.60;;
29240;SDS011;16268;49.880;8.648;2022-11-21T13:38:03;8.27;;;2.65;;
29240;SDS011;16268;49.880;8.648;2022-11-21T13:40:37;11.25;;;3.05;;
29240;SDS011;16268;49.880;8.648;2022-11-21T13:45:39;24.13;;;9.05;;
29240;SDS011;16268;49.880;8.648;2022-11-21T13:56:35;9.13;;;4.18;;
29240;SDS011;16268;49.880;8.648;2022-11-21T14:01:50;11.15;;;4.70;;
29240;SDS011;16268;49.880;8.648;2022-11-21T14:07:25;10.10;;;3.17;;
29240;SDS011;16268;49.880;8.648;2022-11-21T14:09:55;8.23;;;3.75;;
29240;SDS011;16268;49.880;8.648;2022-11-21T14:12:26;11.00;;;3.90;;
29240;SDS011;16268;49.880;8.648;2022-11-21T14:19:59;8.98;;;3.15;;
29240;SDS011;16268;49.880;8.648;2022-11-21T14:25:28;9.73;;;3.63;;
29240;SDS011;16268;49.880;8.648;2022-11-21T14:27:58;9.18;;;3.05;;
29240;SDS011;16268;49.880;8.648;2022-11-21T14:30:26;11.23;;;2.80;;
29240;SDS011;16268;49.880;8.648;2022-11-21T14:38:28;12.05;;;3.22;;
29240;SDS011;16268;49.880;8.648;2022-11-21T14:41:23;7.63;;;1.90;;
29240;SDS011;16268;49.880;8.648;2022-11-21T14:46:25;10.55;;;2.53;;
29240;SDS011;16268;49.880;8.648;2022-11-21T14:51:40;11.18;;;2.33;;
29240;SDS011;16268;49.880;8.648;2022-11-21T14:54:12;8.48;;;1.83;;
29240;SDS011;16268;49.880;8.648;2022-11-21T14:56:41;11.07;;;2.60;;
29240;SDS011;16268;49.880;8.648;2022-11-21T14:59:29;14.95;;;4.50;;
29240;SDS011;16268;49.880;8.648;2022-11-21T15:02:14;8.88;;;2.83;;
29240;SDS011;16268;49.880;8.648;2022-11-21T15:04:42;8.03;;;3.07;;
29240;SDS011;16268;49.880;8.648;2022-11-21T15:07:16;8.63;;;3.35;;
29240;SDS011;16268;49.880;8.648;2022-11-21T15:09:43;11.15;;;2.65;;
29240;SDS011;16268;49.880;8.648;2022-11-21T15:12:09;10.00;;;2.60;;
29240;SDS011;16268;49.880;8.648;2022-11-21T15:17:15;11.70;;;2.65;;
29240;SDS011;16268;49.880;8.648;2022-11-21T15:19:44;7.78;;;2.25;;
29240;SDS011;16268;49.880;8.648;2022-11-21T15:22:27;9.95;;;2.67;;
29240;SDS011;16268;49.880;8.648;2022-11-21T15:25:16;12.70;;;2.80;;
29240;SDS011;16268;49.880;8.648;2022-11-21T15:27:47;9.40;;;2.30;;
29240;SDS011;16268;49.880;8.648;2022-11-21T15:35:27;9.70;;;3.00;;
29240;SDS011;16268;49.880;8.648;2022-11-21T15:38:12;10.00;;;2.53;;
29240;SDS011;16268;49.880;8.648;2022-11-21T15:43:48;11.68;;;2.80;;
29240;SDS011;16268;49.880;8.648;2022-11-21T15:48:54;8.55;;;2.42;;
29240;SDS011;16268;49.880;8.648;2022-11-21T15:51:25;11.10;;;2.92;;
29240;SDS011;16268;49.880;8.648;2022-11-21T15:53:54;7.30;;;2.60;;
29240;SDS011;16268;49.880;8.648;2022-11-21T15:56:20;9.95;;;2.33;;
29240;SDS011;16268;49.880;8.648;2022-11-21T15:58:49;12.02;;;2.92;;
29240;SDS011;16268;49.880;8.648;2022-11-21T16:01:19;10.50;;;2.95;;
29240;SDS011;16268;49.880;8.648;2022-11-21T16:03:50;11.68;;;2.60;;
29240;SDS011;16268;49.880;8.648;2022-11-21T16:06:18;15.00;;;2.58;;
29240;SDS011;16268;49.880;8.648;2022-11-21T16:08:44;10.38;;;2.78;;
29240;SDS011;16268;49.880;8.648;2022-11-21T16:11:17;8.25;;;2.50;;
29240;SDS011;16268;49.880;8.648;2022-11-21T16:13:57;7.65;;;2.20;;
29240;SDS011;16268;49.880;8.648;2022-11-21T16:16:25;9.50;;;2.63;;
29240;SDS011;16268;49.880;8.648;2022-11-21T16:18:54;11.45;;;2.80;;
29240;SDS011;16268;49.880;8.648;2022-11-21T16:21:20;11.15;;;2.75;;
29240;SDS011;16268;49.880;8.648;2022-11-21T16:23:46;15.60;;;2.90;;
29240;SDS011;16268;49.880;8.648;2022-11-21T16:26:11;10.95;;;3.13;;
29240;SDS011;16268;49.880;8.648;2022-11-21T16:28:37;8.95;;;3.00;;
29240;SDS011;16268;49.880;8.648;2022-11-21T16:31:04;8.43;;;2.95;;
29240;SDS011;16268;49.880;8.648;2022-11-21T16:33:30;10.65;;;3.30;;
29240;SDS011;16268;49.880;8.648;2022-11-21T16:35:58;10.93;;;3.15;;
29240;SDS011;16268;49.880;8.648;2022-11-21T16:38:24;10.35;;;3.40;;
29240;SDS011;16268;49.880;8.648;2022-11-21T16:40:59;10.13;;;3.13;;
29240;SDS011;16268;49.880;8.648;2022-11-21T16:43:28;12.75;;;3.70;;
29240;SDS011;16268;49.880;8.648;2022-11-21T16:45:54;11.88;;;4.00;;
29240;SDS011;16268;49.880;8.648;2022-11-21T16:48:29;11.90;;;3.95;;
29240;SDS011;16268;49.880;8.648;2022-11-21T16:50:55;10.95;;;3.67;;
29240;SDS011;16268;49.880;8.648;2022-11-21T16:53:32;8.65;;;3.58;;
29240;SDS011;16268;49.880;8.648;2022-11-21T16:56:00;12.10;;;3.38;;
29240;SDS011;16268;49.880;8.648;2022-11-21T16:58:26;13.60;;;3.70;;
29240;SDS011;16268;49.880;8.648;2022-11-21T17:00:51;9.48;;;3.33;;
29240;SDS011;16268;49.880;8.648;2022-11-21T17:03:17;11.18;;;3.42;;
29240;SDS011;16268;49.880;8.648;2022-11-21T17:05:43;7.22;;;2.78;;
29240;SDS011;16268;49.880;8.648;2022-11-21T17:08:19;11.38;;;3.17;;